Time;durP1;ratioP1;P1;durP2;ratioP2;P2;SDS_P1;SDS_P2;PMS_P1;PMS_P2;Temp;Humidity;BMP_temperature;BMP_pressure;BME280_temperature;BME280_humidity;BME280_pressure;Samples;Min_cycle;Max_cycle;Signal;HPM_P1;HPM_P2
2021/12/20 00:01:42;;;;;;;12.20;3.97;;;6.30;99.90;;;;;;5091098;28;20048;-65
2021/12/20 00:04:08;;;;;;;11.40;2.75;;;6.30;99.90;;;;;;5092211;28;20052;-65
2021/12/20 00:06:34;;;;;;;12.88;3.42;;;6.30;99.90;;;;;;5090811;28;20040;-65
2021/12/20 00:08:59;;;;;;;20.50;3.88;;;6.30;99.90;;;;;;5090445;28;20054;-65
2021/12/20 00:11:25;;;;;;;16.55;4.03;;;6.30;99.90;;;;;;5085909;28;20056;-65
2021/12/20 00:13:51;;;;;;;14.45;3.95;;;6.30;99.90;;;;;;5079765;28;20075;-65
2021/12/20 00:16:16;;;;;;;16.00;3.22;;;6.30;99.90;;;;;;5071715;28;20045;-65
2021/12/20 00:18:43;;;;;;;8.65;2.50;;;6.30;99.90;;;;;;5071440;28;20432;-65
2021/12/20 00:21:10;;;;;;;13.43;3.08;;;6.30;99.90;;;;;;5069307;28;20052;-65
2021/12/20 00:23:35;;;;;;;16.17;3.55;;;6.30;99.90;;;;;;5069849;28;20087;-65
2021/12/20 00:26:01;;;;;;;32.25;4.10;;;6.30;99.90;;;;;;5071609;28;20084;-65
2021/12/20 00:28:26;;;;;;;10.75;2.45;;;6.30;99.90;;;;;;5069679;28;20048;-65
2021/12/20 00:30:52;;;;;;;12.32;3.60;;;6.30;99.90;;;;;;5070328;28;20049;-65
2021/12/20 00:33:18;;;;;;;20.70;3.00;;;6.30;99.90;;;;;;5070285;28;20105;-65
2021/12/20 00:35:44;;;;;;;12.98;3.33;;;6.30;99.90;;;;;;5070664;28;20045;-65
2021/12/20 00:40:55;;;;;;;12.30;2.67;;;6.30;99.90;;;;;;5069977;28;20056;-65
2021/12/20 00:43:20;;;;;;;17.08;2.75;;;6.30;99.90;;;;;;5069396;28;20044;-65
2021/12/20 00:45:46;;;;;;;22.77;3.70;;;6.30;99.90;;;;;;5069930;28;20127;-65
2021/12/20 00:48:12;;;;;;;10.77;2.88;;;6.30;99.90;;;;;;5069952;28;20101;-65
2021/12/20 00:50:39;;;;;;;17.27;3.30;;;6.30;99.90;;;;;;5068882;28;20186;-65
2021/12/20 00:53:06;;;;;;;12.02;2.67;;;6.40;99.90;;;;;;5071242;28;20044;-64
2021/12/20 00:55:31;;;;;;;12.80;2.35;;;6.30;99.90;;;;;;5069548;28;20048;-64
2021/12/20 00:57:58;;;;;;;11.93;2.90;;;6.40;99.90;;;;;;5070465;28;20052;-65
2021/12/20 01:00:29;;;;;;;14.25;3.60;;;6.30;99.90;;;;;;5090005;28;20081;-65
2021/12/20 01:02:56;;;;;;;9.82;2.67;;;6.30;99.90;;;;;;5106593;28;20072;-65
2021/12/20 01:05:23;;;;;;;8.95;2.10;;;6.30;99.90;;;;;;5099421;28;20048;-65
2021/12/20 01:07:50;;;;;;;16.88;2.42;;;6.30;99.90;;;;;;5102467;28;20176;-65
2021/12/20 01:10:16;;;;;;;11.35;2.80;;;6.30;99.90;;;;;;5095891;28;20041;-65
2021/12/20 01:12:46;;;;;;;11.52;2.67;;;6.30;99.90;;;;;;5095802;28;20140;-65
2021/12/20 01:15:16;;;;;;;8.32;2.20;;;6.30;99.90;;;;;;5093406;28;20172;-65
2021/12/20 01:17:42;;;;;;;14.65;2.78;;;6.30;99.90;;;;;;5109119;28;20425;-65
2021/12/20 01:20:09;;;;;;;8.68;2.20;;;6.30;99.90;;;;;;5110048;28;20067;-64
2021/12/20 01:22:34;;;;;;;17.17;2.50;;;6.30;99.90;;;;;;5114199;28;20372;-64
2021/12/20 01:25:00;;;;;;;11.32;2.47;;;6.30;99.90;;;;;;5089246;28;20078;-65
2021/12/20 01:27:26;;;;;;;10.40;2.85;;;6.30;99.90;;;;;;5093900;28;20126;-65
2021/12/20 01:29:51;;;;;;;9.45;1.60;;;6.30;99.90;;;;;;5108978;28;20104;-64
2021/12/20 01:32:17;;;;;;;9.15;1.92;;;6.30;99.90;;;;;;5110456;28;20040;-64
2021/12/20 01:34:42;;;;;;;5.45;1.58;;;6.20;99.90;;;;;;5110536;28;20054;-64
2021/12/20 01:37:08;;;;;;;14.82;2.15;;;6.20;99.90;;;;;;5109734;28;20124;-64
2021/12/20 01:39:34;;;;;;;7.80;1.95;;;6.20;99.90;;;;;;5109163;28;20054;-64
2021/12/20 01:42:02;;;;;;;20.77;3.53;;;6.20;99.90;;;;;;5109975;28;20060;-65
2021/12/20 01:44:30;;;;;;;5.38;1.83;;;6.20;99.90;;;;;;5109973;28;20043;-64
2021/12/20 01:46:55;;;;;;;12.63;2.25;;;6.10;99.90;;;;;;5109140;28;20071;-64
2021/12/20 01:49:21;;;;;;;11.63;3.05;;;6.10;99.90;;;;;;5109782;28;20083;-64
2021/12/20 01:54:13;;;;;;;6.65;1.38;;;6.10;99.90;;;;;;5109236;28;20137;-64
2021/12/20 01:56:42;;;;;;;10.20;1.85;;;6.10;99.90;;;;;;5110987;28;20047;-65
2021/12/20 01:59:10;;;;;;;7.22;1.70;;;6.10;99.90;;;;;;5109298;28;20059;-64
2021/12/20 02:01:36;;;;;;;9.77;2.40;;;6.10;99.90;;;;;;5110965;28;20048;-64
2021/12/20 02:04:06;;;;;;;11.07;2.22;;;6.10;99.90;;;;;;5110955;28;20165;-64
2021/12/20 02:06:39;;;;;;;8.95;1.88;;;6.10;99.90;;;;;;5110160;28;20054;-64
2021/12/20 02:09:13;;;;;;;7.65;1.08;;;6.10;99.90;;;;;;5109606;28;20057;-64
2021/12/20 02:11:41;;;;;;;10.23;2.40;;;6.10;99.90;;;;;;5110705;28;20502;-65
2021/12/20 02:14:08;;;;;;;7.45;1.33;;;6.00;99.90;;;;;;5108958;28;20059;-64
2021/12/20 02:16:35;;;;;;;6.43;1.83;;;6.00;99.90;;;;;;5108915;28;20493;-64
2021/12/20 02:19:11;;;;;;;7.90;1.55;;;6.00;99.90;;;;;;5109556;28;20124;-65
2021/12/20 02:21:37;;;;;;;10.27;1.73;;;6.00;99.90;;;;;;5108695;28;20039;-64
2021/12/20 02:24:03;;;;;;;9.68;1.98;;;6.00;99.90;;;;;;5110927;28;20126;-64
2021/12/20 02:26:29;;;;;;;10.88;1.60;;;6.00;99.90;;;;;;5109286;28;20096;-64
2021/12/20 02:29:00;;;;;;;10.60;1.95;;;6.00;99.90;;;;;;5108694;28;20048;-64
2021/12/20 02:39:27;;;;;;;14.07;2.50;;;5.90;99.90;;;;;;5109634;28;20055;-65
2021/12/20 02:41:53;;;;;;;13.25;2.47;;;5.90;99.90;;;;;;5108470;28;20055;-64
2021/12/20 02:44:21;;;;;;;7.68;1.63;;;5.90;99.90;;;;;;5110834;28;20043;-64
2021/12/20 02:49:26;;;;;;;14.18;2.53;;;5.80;99.90;;;;;;5112290;28;20092;-64
2021/12/20 02:51:53;;;;;;;5.93;1.85;;;5.70;99.90;;;;;;5112658;28;20097;-64
2021/12/20 02:54:21;;;;;;;14.75;2.38;;;5.70;99.90;;;;;;5113112;28;20050;-64
2021/12/20 02:56:48;;;;;;;12.52;2.58;;;5.60;99.90;;;;;;5112168;28;20478;-64
2021/12/20 02:59:15;;;;;;;11.70;2.53;;;5.60;99.90;;;;;;5112896;28;20075;-64
2021/12/20 03:01:46;;;;;;;10.85;1.95;;;5.50;99.90;;;;;;5112204;28;20490;-64
2021/12/20 03:04:12;;;;;;;12.20;1.95;;;5.40;99.90;;;;;;5113363;28;20058;-64
2021/12/20 03:06:45;;;;;;;7.25;2.38;;;5.40;99.90;;;;;;5112666;28;20062;-64
2021/12/20 03:09:17;;;;;;;9.32;1.83;;;5.30;99.90;;;;;;5113948;28;20507;-64
2021/12/20 03:11:46;;;;;;;7.80;1.60;;;5.20;99.90;;;;;;5112925;28;20497;-64
2021/12/20 03:14:20;;;;;;;8.95;1.63;;;5.10;99.90;;;;;;5112263;28;20331;-64
2021/12/20 03:16:45;;;;;;;11.32;1.90;;;5.10;99.90;;;;;;5111084;28;20062;-64
2021/12/20 03:19:11;;;;;;;10.43;2.30;;;5.00;99.90;;;;;;5112210;28;20059;-64
2021/12/20 03:21:37;;;;;;;9.23;2.40;;;5.00;99.90;;;;;;5113634;28;20043;-65
2021/12/20 03:24:04;;;;;;;7.93;1.92;;;5.00;99.90;;;;;;5111704;28;20093;-64
2021/12/20 03:26:30;;;;;;;9.20;2.03;;;4.90;99.90;;;;;;5112229;28;20410;-65
2021/12/20 03:28:55;;;;;;;7.88;1.48;;;4.90;99.90;;;;;;5112129;28;20048;-64
2021/12/20 03:31:21;;;;;;;14.57;1.92;;;4.90;99.90;;;;;;5112576;28;20131;-64
2021/12/20 03:33:47;;;;;;;6.47;1.92;;;4.80;99.90;;;;;;5113182;28;20051;-64
2021/12/20 03:36:12;;;;;;;8.70;1.67;;;4.80;99.90;;;;;;5112228;28;20110;-64
2021/12/20 03:38:38;;;;;;;4.50;1.25;;;4.80;99.90;;;;;;5111023;28;20051;-65
2021/12/20 03:41:04;;;;;;;11.23;1.35;;;4.70;99.90;;;;;;5111943;28;20051;-65
2021/12/20 03:43:31;;;;;;;6.55;1.25;;;4.70;99.90;;;;;;5111864;28;20056;-65
2021/12/20 03:46:03;;;;;;;9.43;2.20;;;4.70;99.90;;;;;;5112524;28;20047;-64
2021/12/20 03:48:29;;;;;;;8.70;1.40;;;4.60;99.90;;;;;;5111442;28;20040;-64
2021/12/20 03:50:56;;;;;;;5.30;1.75;;;4.60;99.90;;;;;;5113285;28;20058;-64
2021/12/20 03:53:22;;;;;;;7.85;2.08;;;4.60;99.90;;;;;;5112310;28;20048;-64
2021/12/20 03:55:48;;;;;;;3.63;1.15;;;4.50;99.90;;;;;;5111028;28;20147;-64
2021/12/20 03:58:13;;;;;;;8.55;1.42;;;4.60;99.90;;;;;;5111594;28;20047;-64
2021/12/20 04:00:39;;;;;;;14.80;2.22;;;4.50;99.90;;;;;;5111773;28;20442;-64
2021/12/20 04:03:10;;;;;;;8.73;1.67;;;4.60;99.90;;;;;;5111722;28;20040;-64
2021/12/20 04:05:36;;;;;;;7.50;1.30;;;4.60;99.90;;;;;;5112798;28;20043;-64
2021/12/20 04:08:02;;;;;;;4.93;1.05;;;4.50;99.90;;;;;;5111985;28;20192;-64
2021/12/20 04:10:27;;;;;;;6.80;1.33;;;4.50;99.90;;;;;;5111671;28;20051;-64
2021/12/20 04:12:53;;;;;;;11.07;2.97;;;4.40;99.90;;;;;;5110184;28;20052;-64
2021/12/20 04:15:18;;;;;;;5.43;1.45;;;4.50;99.90;;;;;;5111127;28;20039;-64
2021/12/20 04:17:44;;;;;;;4.22;1.02;;;4.50;99.90;;;;;;5110821;28;20400;-64
2021/12/20 04:20:10;;;;;;;4.93;1.52;;;4.50;99.90;;;;;;5111636;28;20134;-64
2021/12/20 04:22:36;;;;;;;7.75;1.90;;;4.50;99.90;;;;;;5110867;28;20040;-64
2021/12/20 04:25:03;;;;;;;10.68;2.30;;;4.50;99.90;;;;;;5111065;28;20444;-64
2021/12/20 04:27:28;;;;;;;15.23;2.75;;;4.60;99.90;;;;;;5110052;28;20081;-64
2021/12/20 04:29:55;;;;;;;5.70;1.48;;;4.60;99.90;;;;;;5112225;28;20074;-64
2021/12/20 04:32:21;;;;;;;7.90;1.52;;;4.60;99.90;;;;;;5110894;28;20047;-64
2021/12/20 04:34:46;;;;;;;6.32;1.50;;;4.60;99.90;;;;;;5111551;28;20039;-64
2021/12/20 04:37:12;;;;;;;5.43;1.08;;;4.60;99.90;;;;;;5112349;28;20035;-64
2021/12/20 04:39:38;;;;;;;9.48;1.50;;;4.60;99.90;;;;;;5110513;28;20078;-64
2021/12/20 04:42:04;;;;;;;10.15;1.63;;;4.70;99.90;;;;;;5110353;28;20079;-65
2021/12/20 04:44:30;;;;;;;10.25;1.23;;;4.70;99.90;;;;;;5110546;28;20725;-64
2021/12/20 04:46:55;;;;;;;6.63;1.50;;;4.70;99.90;;;;;;5111985;28;20039;-64
2021/12/20 04:49:24;;;;;;;7.82;1.60;;;4.70;99.90;;;;;;5109812;28;20123;-64
2021/12/20 04:51:53;;;;;;;4.90;1.23;;;4.70;99.90;;;;;;5110296;28;20040;-64
2021/12/20 04:54:19;;;;;;;6.95;1.30;;;4.70;99.90;;;;;;5110568;28;20051;-64
2021/12/20 04:56:45;;;;;;;20.30;1.63;;;4.70;99.90;;;;;;5110933;28;20116;-64
2021/12/20 04:59:11;;;;;;;4.68;1.35;;;4.70;99.90;;;;;;5110325;28;20040;-64
2021/12/20 05:01:36;;;;;;;5.45;0.80;;;4.70;99.90;;;;;;5090513;28;20443;-64
2021/12/20 05:04:02;;;;;;;11.23;1.83;;;4.70;99.90;;;;;;5105643;28;20048;-64
2021/12/20 05:06:30;;;;;;;7.78;1.80;;;4.70;99.90;;;;;;5090178;28;20494;-64
2021/12/20 05:08:56;;;;;;;5.88;1.23;;;5.50;99.90;;;;;;5090826;28;20040;-64
2021/12/20 05:11:22;;;;;;;8.60;1.35;;;4.70;99.90;;;;;;5089137;28;20056;-64
2021/12/20 05:13:48;;;;;;;10.13;1.33;;;4.70;99.90;;;;;;5109640;28;20480;-64
2021/12/20 05:16:14;;;;;;;11.27;1.95;;;4.70;99.90;;;;;;5126539;27;20053;-65
2021/12/20 05:18:39;;;;;;;5.82;1.40;;;4.60;99.90;;;;;;5108988;28;20161;-64
2021/12/20 05:21:05;;;;;;;9.48;1.83;;;4.60;99.90;;;;;;5095725;28;20127;-64
2021/12/20 05:23:31;;;;;;;9.38;1.92;;;4.50;99.90;;;;;;5091832;28;20120;-64
2021/12/20 05:25:56;;;;;;;5.85;1.35;;;4.50;99.90;;;;;;5099255;28;20036;-64
2021/12/20 05:28:23;;;;;;;2.58;1.30;;;4.40;99.90;;;;;;5102687;28;20048;-64
2021/12/20 05:30:52;;;;;;;7.38;1.70;;;4.40;99.90;;;;;;5100858;28;20598;-64
2021/12/20 05:33:18;;;;;;;8.40;1.55;;;4.30;99.90;;;;;;5108355;28;20546;-64
2021/12/20 05:35:43;;;;;;;5.20;1.27;;;4.20;99.90;;;;;;5089518;28;20146;-64
2021/12/20 05:38:09;;;;;;;7.85;2.25;;;4.20;99.90;;;;;;5088942;28;20131;-64
2021/12/20 05:40:35;;;;;;;8.45;1.20;;;4.10;99.90;;;;;;5110194;28;20492;-64
2021/12/20 05:43:01;;;;;;;6.95;1.52;;;4.00;99.90;;;;;;5109979;28;20044;-64
2021/12/20 05:45:26;;;;;;;6.72;1.77;;;4.00;99.90;;;;;;5109349;28;20101;-65
2021/12/20 05:47:52;;;;;;;15.38;1.73;;;3.90;99.90;;;;;;5106290;28;20605;-64
2021/12/20 05:50:20;;;;;;;7.65;1.77;;;3.80;99.90;;;;;;5103848;28;20079;-64
2021/12/20 05:52:46;;;;;;;8.60;1.35;;;3.70;99.90;;;;;;5088464;28;20035;-64
2021/12/20 05:55:13;;;;;;;3.20;1.10;;;3.70;99.90;;;;;;5109719;28;20048;-64
2021/12/20 05:57:39;;;;;;;3.22;1.15;;;3.50;99.90;;;;;;5107115;28;20059;-64
2021/12/20 06:00:12;;;;;;;4.32;1.25;;;3.50;99.90;;;;;;5098811;28;20056;-64
2021/12/20 06:02:37;;;;;;;;;;;3.40;99.90;;;;;;5092209;28;20043;-64
2021/12/20 06:05:03;;;;;;;6.38;1.75;;;3.40;99.90;;;;;;5104213;28;19920;-64
2021/12/20 06:07:29;;;;;;;3.08;0.88;;;3.30;99.90;;;;;;5097924;28;20116;-64
2021/12/20 06:09:55;;;;;;;6.40;1.52;;;3.20;99.90;;;;;;5104478;28;20042;-64
2021/12/20 06:12:20;;;;;;;2.35;1.10;;;3.20;99.90;;;;;;5087515;28;20048;-64
2021/12/20 06:14:46;;;;;;;4.53;1.60;;;3.10;99.90;;;;;;5110022;28;20440;-65
2021/12/20 06:17:11;;;;;;;11.52;2.25;;;3.20;99.90;;;;;;5069020;28;20064;-64
2021/12/20 06:19:37;;;;;;;4.53;1.30;;;3.00;99.90;;;;;;5069394;28;20501;-64
2021/12/20 06:22:04;;;;;;;9.40;1.48;;;2.90;99.90;;;;;;5072924;28;20097;-64
2021/12/20 06:24:29;;;;;;;8.85;1.20;;;2.90;99.90;;;;;;5072751;28;20048;-64
2021/12/20 06:26:55;;;;;;;4.10;1.38;;;2.80;99.90;;;;;;5073228;28;20044;-64
2021/12/20 06:29:21;;;;;;;13.82;2.00;;;2.80;99.90;;;;;;5074087;28;20055;-65
2021/12/20 06:31:46;;;;;;;7.60;1.42;;;2.70;99.90;;;;;;5072803;28;20105;-64
2021/12/20 06:34:12;;;;;;;6.60;1.80;;;2.70;99.90;;;;;;5080126;28;20032;-64
2021/12/20 06:36:38;;;;;;;3.83;1.60;;;2.60;99.90;;;;;;5104822;28;20393;-64
2021/12/20 06:39:05;;;;;;;14.40;2.05;;;2.50;99.90;;;;;;5101681;28;20109;-64
2021/12/20 06:41:31;;;;;;;6.18;1.55;;;2.50;99.90;;;;;;5072423;28;20127;-64
2021/12/20 06:43:57;;;;;;;13.48;2.03;;;2.50;99.90;;;;;;5096885;28;20100;-64
2021/12/20 06:46:24;;;;;;;5.90;1.45;;;2.40;99.90;;;;;;5113228;28;20052;-64
2021/12/20 06:48:50;;;;;;;5.38;1.30;;;2.40;99.90;;;;;;5103114;28;20486;-64
2021/12/20 06:51:16;;;;;;;6.57;1.95;;;2.40;99.90;;;;;;5113293;28;20058;-64
2021/12/20 06:53:42;;;;;;;5.68;2.28;;;2.30;99.90;;;;;;5112650;28;20135;-64
2021/12/20 06:56:08;;;;;;;6.63;2.13;;;2.30;99.90;;;;;;5113675;28;20126;-64
2021/12/20 06:58:33;;;;;;;3.67;1.58;;;2.30;99.90;;;;;;5113852;28;20460;-64
2021/12/20 07:00:59;;;;;;;6.25;1.45;;;2.20;99.90;;;;;;5112729;28;20091;-64
2021/12/20 07:03:25;;;;;;;8.23;1.80;;;2.20;99.90;;;;;;5112067;28;20071;-64
2021/12/20 07:05:50;;;;;;;7.55;1.10;;;2.20;99.90;;;;;;5087864;28;20082;-64
2021/12/20 07:08:16;;;;;;;9.63;2.42;;;2.10;99.90;;;;;;5109322;28;20064;-64
2021/12/20 07:10:42;;;;;;;6.20;1.13;;;2.10;99.90;;;;;;5091687;28;20048;-64
2021/12/20 07:13:09;;;;;;;13.40;2.35;;;2.10;99.90;;;;;;5092456;28;20121;-64
2021/12/20 07:15:36;;;;;;;9.48;1.45;;;2.10;99.90;;;;;;5091908;28;20518;-64
2021/12/20 07:18:01;;;;;;;4.85;1.83;;;2.10;99.90;;;;;;5092589;28;20048;-64
2021/12/20 07:20:27;;;;;;;4.07;1.08;;;2.00;99.90;;;;;;5093326;28;20352;-64
2021/12/20 07:22:52;;;;;;;4.40;1.73;;;2.00;99.90;;;;;;5092198;28;20157;-64
2021/12/20 07:25:20;;;;;;;4.30;1.27;;;2.00;99.90;;;;;;5093394;28;20040;-64
2021/12/20 07:27:50;;;;;;;10.32;2.20;;;1.90;99.90;;;;;;5097982;28;20072;-64
2021/12/20 07:30:16;;;;;;;5.57;1.58;;;1.90;99.90;;;;;;5103284;28;20052;-64
2021/12/20 07:32:42;;;;;;;3.63;1.48;;;2.00;99.90;;;;;;5097973;28;20492;-64
2021/12/20 07:35:09;;;;;;;5.90;1.70;;;1.80;99.90;;;;;;5101377;28;20127;-64
2021/12/20 07:37:35;;;;;;;4.60;1.77;;;1.80;99.90;;;;;;5111039;28;20111;-64
2021/12/20 07:40:01;;;;;;;14.20;2.10;;;1.80;99.90;;;;;;5112035;28;20131;-64
2021/12/20 07:42:26;;;;;;;10.90;2.92;;;1.70;99.90;;;;;;5111790;28;20071;-64
2021/12/20 07:44:52;;;;;;;8.70;1.85;;;1.70;99.90;;;;;;5112239;28;20401;-64
2021/12/20 07:47:18;;;;;;;6.72;1.45;;;1.90;99.90;;;;;;5090618;28;20403;-64
2021/12/20 07:49:43;;;;;;;12.95;2.60;;;1.70;99.90;;;;;;5096327;28;20130;-64
2021/12/20 07:52:09;;;;;;;6.43;1.95;;;1.70;99.90;;;;;;5103775;28;20053;-64
2021/12/20 07:54:35;;;;;;;13.05;2.63;;;1.70;99.90;;;;;;5112692;28;20475;-64
2021/12/20 07:57:00;;;;;;;13.65;2.33;;;1.70;99.90;;;;;;5110961;28;20047;-64
2021/12/20 07:59:26;;;;;;;6.45;2.13;;;1.70;99.90;;;;;;5090586;28;20053;-64
2021/12/20 08:01:51;;;;;;;9.93;2.33;;;1.70;99.90;;;;;;5083626;28;20057;-64
2021/12/20 08:04:17;;;;;;;6.85;2.00;;;1.70;99.90;;;;;;5091495;28;20505;-64
2021/12/20 08:06:43;;;;;;;8.30;2.50;;;1.80;99.90;;;;;;5099585;28;20044;-64
2021/12/20 08:09:10;;;;;;;15.65;2.38;;;1.80;99.90;;;;;;5100282;28;20130;-64
2021/12/20 08:11:36;;;;;;;6.65;1.92;;;1.80;99.90;;;;;;5106913;28;20127;-64
2021/12/20 08:14:02;;;;;;;7.90;2.22;;;1.80;99.90;;;;;;5090019;28;20131;-64
2021/12/20 08:16:28;;;;;;;10.18;2.65;;;1.80;99.90;;;;;;5098976;28;20168;-65
2021/12/20 08:18:53;;;;;;;13.95;3.22;;;1.80;99.90;;;;;;5100234;28;20126;-64
2021/12/20 08:21:21;;;;;;;9.25;2.60;;;1.80;99.90;;;;;;5111449;28;20047;-64
2021/12/20 08:23:47;;;;;;;10.82;2.60;;;1.80;99.90;;;;;;5084645;28;20040;-64
2021/12/20 08:26:12;;;;;;;12.25;2.67;;;1.80;99.90;;;;;;5100143;28;20058;-64
2021/12/20 08:28:38;;;;;;;9.20;2.75;;;1.90;99.90;;;;;;5090422;28;20048;-64
2021/12/20 08:31:06;;;;;;;9.35;2.40;;;1.90;99.90;;;;;;5094554;28;20439;-64
2021/12/20 08:33:35;;;;;;;7.28;2.53;;;1.80;99.90;;;;;;5099044;28;20040;-64
2021/12/20 08:36:03;;;;;;;19.27;3.00;;;1.90;99.90;;;;;;5096620;28;20118;-65
2021/12/20 08:38:29;;;;;;;9.73;2.55;;;1.90;99.90;;;;;;5102055;28;20593;-64
2021/12/20 08:40:54;;;;;;;7.32;2.92;;;2.00;99.90;;;;;;5098400;28;20052;-65
2021/12/20 08:43:21;;;;;;;7.57;2.55;;;2.00;99.90;;;;;;5107056;28;20466;-68
2021/12/20 08:45:47;;;;;;;7.53;2.92;;;2.00;99.90;;;;;;5103001;28;20057;-68
2021/12/20 08:48:13;;;;;;;14.98;3.38;;;2.00;99.90;;;;;;5098712;28;20040;-66
2021/12/20 08:50:39;;;;;;;16.05;3.40;;;2.10;99.90;;;;;;5111566;28;20531;-69
2021/12/20 08:53:06;;;;;;;10.70;3.08;;;2.10;99.90;;;;;;5128674;27;20028;-66
2021/12/20 08:55:32;;;;;;;10.25;3.10;;;2.10;99.90;;;;;;5098857;28;20048;-65
2021/12/20 08:57:58;;;;;;;12.30;3.92;;;2.20;99.90;;;;;;5092319;28;20474;-67
2021/12/20 09:00:30;;;;;;;13.05;3.60;;;2.20;99.90;;;;;;5090949;28;20056;-66
2021/12/20 09:02:57;;;;;;;9.95;2.45;;;2.20;99.90;;;;;;5090085;28;20360;-66
2021/12/20 09:05:23;;;;;;;9.48;3.55;;;2.30;99.90;;;;;;5093248;28;20040;-68
2021/12/20 09:07:49;;;;;;;8.85;3.47;;;2.30;99.90;;;;;;5090302;28;20482;-67
2021/12/20 09:10:16;;;;;;;11.73;3.05;;;2.60;99.90;;;;;;5093314;28;20051;-68
2021/12/20 09:12:43;;;;;;;11.50;4.30;;;2.40;99.90;;;;;;5108948;28;20078;-68
2021/12/20 09:15:15;;;;;;;7.10;2.95;;;2.40;99.90;;;;;;5112005;28;20051;-69
2021/12/20 09:17:45;;;;;;;17.70;3.83;;;2.50;99.90;;;;;;5087872;28;20075;-68
2021/12/20 09:20:12;;;;;;;9.15;3.03;;;2.60;99.90;;;;;;5077889;28;20411;-68
2021/12/20 09:22:50;;;;;;;11.23;4.15;;;2.70;99.90;;;;;;5088713;28;20090;-68
2021/12/20 09:25:21;;;;;;;8.73;3.80;;;2.80;99.90;;;;;;5090162;28;20044;-67
2021/12/20 09:27:47;;;;;;;10.10;3.47;;;2.80;99.90;;;;;;5090197;28;20495;-67
2021/12/20 09:30:14;;;;;;;8.13;3.03;;;2.90;99.90;;;;;;5092196;28;20051;-67
2021/12/20 09:32:40;;;;;;;9.45;3.42;;;2.90;99.90;;;;;;5080763;28;20047;-68
2021/12/20 09:35:07;;;;;;;10.88;3.60;;;3.00;99.90;;;;;;5090312;28;20066;-67
2021/12/20 09:37:33;;;;;;;11.52;2.90;;;3.10;99.90;;;;;;5089007;28;20387;-69
2021/12/20 09:40:00;;;;;;;7.10;2.90;;;3.20;99.90;;;;;;5090295;28;20084;-70
2021/12/20 09:42:26;;;;;;;14.43;3.83;;;3.30;99.90;;;;;;5090386;28;20075;-67
2021/12/20 09:44:53;;;;;;;26.40;3.97;;;3.40;99.90;;;;;;5089497;28;20486;-67
2021/12/20 09:47:19;;;;;;;18.85;4.75;;;3.60;99.90;;;;;;5091544;28;20224;-68
2021/12/20 09:49:45;;;;;;;12.90;4.10;;;3.60;99.90;;;;;;5091266;28;20052;-67
2021/12/20 09:52:11;;;;;;;13.00;3.15;;;3.70;99.90;;;;;;5090739;28;20058;-67
2021/12/20 09:54:39;;;;;;;23.20;3.83;;;3.80;99.90;;;;;;5086366;28;20040;-67
2021/12/20 09:57:10;;;;;;;10.80;3.13;;;3.90;99.90;;;;;;5082796;28;20054;-68
2021/12/20 09:59:37;;;;;;;13.93;3.53;;;4.00;99.90;;;;;;5094649;28;20541;-67
2021/12/20 10:02:07;;;;;;;8.15;2.80;;;4.10;99.90;;;;;;5090460;28;20040;-67
2021/12/20 10:04:34;;;;;;;17.77;3.67;;;4.20;99.90;;;;;;5085849;28;20056;-67
2021/12/20 10:07:02;;;;;;;16.27;3.53;;;4.30;99.90;;;;;;5086895;28;20386;-67
2021/12/20 10:09:32;;;;;;;21.90;4.35;;;4.40;99.90;;;;;;5095453;28;20091;-67
2021/12/20 10:12:24;;;;;;;16.55;3.72;;;4.40;99.90;;;;;;5085026;28;20501;-67
2021/12/20 10:14:58;;;;;;;19.05;4.32;;;4.60;99.90;;;;;;5102297;28;20071;-68
2021/12/20 10:17:29;;;;;;;13.32;3.08;;;4.60;99.90;;;;;;5087719;28;20454;-68
2021/12/20 10:20:10;;;;;;;16.58;3.97;;;4.60;99.90;;;;;;5092827;28;20139;-67
2021/12/20 10:22:36;;;;;;;14.30;3.65;;;4.70;99.90;;;;;;5095203;28;20133;-67
2021/12/20 10:25:18;;;;;;;20.02;4.13;;;4.80;99.90;;;;;;5095201;28;20071;-68
2021/12/20 10:27:44;;;;;;;13.93;3.55;;;4.80;99.90;;;;;;5093240;28;20051;-67
2021/12/20 10:30:25;;;;;;;24.30;4.65;;;4.90;99.90;;;;;;5093803;28;20051;-67
2021/12/20 10:32:50;;;;;;;13.07;3.40;;;4.90;99.90;;;;;;5094156;28;20100;-67
2021/12/20 10:35:25;;;;;;;17.17;4.18;;;4.90;99.90;;;;;;5095276;28;20039;-67
2021/12/20 10:38:00;;;;;;;18.58;4.47;;;5.00;99.90;;;;;;5092752;28;20063;-67
2021/12/20 10:40:26;;;;;;;18.98;4.13;;;4.90;99.90;;;;;;5092812;28;20608;-67
2021/12/20 10:42:53;;;;;;;16.90;4.28;;;5.00;99.90;;;;;;5093239;28;20101;-67
2021/12/20 10:45:20;;;;;;;24.13;3.63;;;5.00;99.90;;;;;;5094437;28;20491;-68
2021/12/20 10:47:47;;;;;;;20.08;4.40;;;5.10;99.90;;;;;;5093378;28;20402;-67
2021/12/20 10:50:19;;;;;;;18.90;4.68;;;5.00;99.90;;;;;;5094463;28;20044;-67
2021/12/20 10:52:45;;;;;;;19.13;5.63;;;5.10;99.90;;;;;;5093176;28;20075;-67
2021/12/20 10:55:11;;;;;;;17.52;5.07;;;5.10;99.90;;;;;;5092895;28;20144;-67
2021/12/20 10:57:37;;;;;;;13.80;3.35;;;5.20;99.90;;;;;;5092775;28;20483;-67
2021/12/20 11:00:15;;;;;;;38.85;5.03;;;5.20;99.90;;;;;;5093062;28;20056;-67
2021/12/20 11:06:14;;;;;;;16.33;4.70;;;5.30;99.90;;;;;;5091501;28;20091;-68
2021/12/20 11:11:25;;;;;;;15.57;3.97;;;5.40;99.90;;;;;;5092758;28;20051;-68
2021/12/20 11:13:51;;;;;;;15.32;3.75;;;5.50;99.90;;;;;;5090198;28;20036;-69
2021/12/20 11:16:34;;;;;;;18.13;4.10;;;5.50;99.90;;;;;;5082881;28;20086;-70
2021/12/20 11:19:26;;;;;;;16.75;4.13;;;5.50;99.90;;;;;;5096177;28;20058;-71
2021/12/20 11:22:00;;;;;;;21.52;5.03;;;5.60;99.90;;;;;;5090615;28;20051;-70
2021/12/20 11:24:37;;;;;;;15.00;3.72;;;5.60;99.90;;;;;;5090486;28;20048;-69
2021/12/20 11:27:07;;;;;;;22.50;4.57;;;5.60;99.90;;;;;;5088600;28;20054;-69
2021/12/20 11:29:35;;;;;;;18.58;4.10;;;5.70;99.90;;;;;;5112125;28;20047;-70
2021/12/20 11:32:01;;;;;;;14.57;3.72;;;5.70;99.90;;;;;;5101935;28;20521;-69
2021/12/20 11:34:27;;;;;;;23.33;4.72;;;5.80;99.90;;;;;;5095484;28;20472;-69
2021/12/20 11:36:55;;;;;;;19.63;4.88;;;5.80;99.90;;;;;;5082750;28;20079;-69
2021/12/20 11:39:20;;;;;;;15.68;4.18;;;5.90;99.90;;;;;;5090254;28;20048;-69
2021/12/20 11:41:46;;;;;;;21.38;4.82;;;5.90;99.90;;;;;;5092787;28;20067;-69
2021/12/20 11:44:16;;;;;;;14.85;4.13;;;6.00;99.90;;;;;;5092160;28;20032;-70
2021/12/20 11:46:51;;;;;;;24.27;4.95;;;6.00;99.90;;;;;;5091897;28;20056;-69
2021/12/20 11:49:22;;;;;;;19.02;4.70;;;6.10;99.90;;;;;;5093723;28;20040;-69
2021/12/20 11:52:08;;;;;;;19.00;4.18;;;6.10;99.90;;;;;;5091374;28;20051;-69
2021/12/20 11:55:07;;;;;;;22.33;5.40;;;6.10;99.90;;;;;;5102208;28;20442;-69
2021/12/20 11:57:46;;;;;;;23.00;4.60;;;6.20;99.90;;;;;;5088448;28;20043;-69
2021/12/20 12:00:28;;;;;;;17.13;5.30;;;6.20;99.90;;;;;;5108172;28;20048;-69
2021/12/20 12:02:56;;;;;;;17.23;5.75;;;6.20;99.90;;;;;;5086566;28;20132;-67
2021/12/20 12:05:40;;;;;;;17.70;3.72;;;6.20;99.90;;;;;;5099058;28;20494;-67
2021/12/20 12:08:36;;;;;;;18.40;3.90;;;6.30;99.90;;;;;;5092025;28;20079;-67
2021/12/20 12:11:08;;;;;;;27.98;5.43;;;6.30;99.90;;;;;;5079532;28;20063;-67
2021/12/20 12:14:05;;;;;;;16.40;3.25;;;6.30;99.90;;;;;;5095643;28;20075;-67
2021/12/20 12:16:55;;;;;;;14.35;3.60;;;6.30;99.90;;;;;;5096702;28;20060;-67
2021/12/20 12:19:47;;;;;;;12.07;3.50;;;6.40;99.90;;;;;;5099513;28;20474;-67
2021/12/20 12:22:31;;;;;;;;;;;6.40;99.90;;;;;;5097669;28;20057;-68
2021/12/20 12:24:57;;;;;;;12.23;3.38;;;6.40;99.90;;;;;;5099711;28;19935;-68
2021/12/20 12:27:32;;;;;;;16.55;3.88;;;6.40;99.90;;;;;;5090661;28;20043;-67
2021/12/20 12:30:13;;;;;;;11.35;2.88;;;6.50;99.90;;;;;;5092058;28;20386;-67
2021/12/20 12:33:01;;;;;;;14.20;2.97;;;6.50;99.90;;;;;;5085253;28;20051;-67
2021/12/20 12:35:39;;;;;;;14.30;3.22;;;6.50;99.90;;;;;;5111566;28;20462;-66
2021/12/20 12:38:13;;;;;;;12.77;3.55;;;6.50;99.90;;;;;;5111643;28;20058;-66
2021/12/20 12:40:39;;;;;;;16.85;2.70;;;6.50;99.90;;;;;;5112106;28;20052;-67
2021/12/20 12:43:05;;;;;;;23.60;3.83;;;6.50;99.90;;;;;;5111820;28;20070;-67
2021/12/20 12:45:46;;;;;;;10.52;3.05;;;6.50;99.90;;;;;;5096201;28;20040;-67
2021/12/20 12:48:47;;;;;;;7.60;2.08;;;6.50;99.90;;;;;;5084435;28;20056;-67
2021/12/20 12:51:19;;;;;;;9.90;2.15;;;6.50;99.90;;;;;;5080079;28;20057;-67
2021/12/20 12:53:56;;;;;;;11.77;2.20;;;6.50;99.90;;;;;;5082838;28;20543;-67
2021/12/20 12:56:25;;;;;;;15.80;2.88;;;6.50;99.90;;;;;;5100417;28;20294;-68
2021/12/20 12:59:14;;;;;;;10.25;2.17;;;6.50;99.90;;;;;;5110969;28;20043;-67
2021/12/20 13:01:57;;;;;;;12.75;2.95;;;6.50;99.90;;;;;;5110164;28;20142;-67
2021/12/20 13:04:51;;;;;;;8.73;3.00;;;6.50;99.90;;;;;;5096284;28;20036;-67
2021/12/20 13:07:22;;;;;;;15.05;2.97;;;6.50;99.90;;;;;;5090438;28;20497;-67
2021/12/20 13:09:49;;;;;;;13.95;3.30;;;6.50;99.90;;;;;;5091475;28;20051;-67
2021/12/20 13:12:58;;;;;;;7.75;2.88;;;6.50;99.90;;;;;;5090832;28;20044;-67
2021/12/20 13:15:26;;;;;;;13.43;2.63;;;6.50;99.90;;;;;;5104947;28;20047;-67
2021/12/20 13:17:56;;;;;;;10.60;2.15;;;6.50;99.90;;;;;;5083695;28;20056;-67
2021/12/20 13:20:35;;;;;;;18.30;3.17;;;6.50;99.90;;;;;;5106326;28;20095;-67
2021/12/20 13:23:05;;;;;;;13.15;3.00;;;6.40;99.90;;;;;;5075852;28;20558;-67